Rochelle, Georgia
Current Conditions -  °F | °C
As of 3:15 PM on Wednesday 28 Jan 2015 (Local Time) from KCKF Reporting Station
Clear Clear  
Wind Chill: 54°   Ceiling: Unl
Heat Index: 54°   Visibility: 10mi
Dew Point: 31°   Wind: 5mph
Humidity: 41%   Direction: 360°N
Pressure: 30.25"   Gusts: NA
Location:  31.95°N, 83.46°W
Report Text: KCKF 282015Z AUTO 36004KT 10SM CLR 12/M01 A3025 RMK AO2 T01221007
Loading
Personal Weather Stations






























Interactive Weather Map New forecast layout! Learn more

10-Day Weather Forecast

Advertisements
Track Severe Weather on mobile